Time;durP1;ratioP1;P1;durP2;ratioP2;P2;SDS_P1;SDS_P2;PMS_P1;PMS_P2;Temp;Humidity;BMP_temperature;BMP_pressure;BME280_temperature;BME280_humidity;BME280_pressure;Samples;Min_cycle;Max_cycle;Signal;HPM_P1;HPM_P2
2021/10/22 00:01:00;;;;;;;3.25;0.63;;;;;;;11.64;60.78;95536.28;5011526;28;20052;-52
2021/10/22 00:03:29;;;;;;;2.38;0.60;;;;;;;11.82;60.23;95540.19;5010726;28;20403;-53
2021/10/22 00:05:59;;;;;;;2.13;0.52;;;;;;;11.90;60.35;95547.41;5010965;28;20066;-49
2021/10/22 00:08:25;;;;;;;2.38;0.60;;;;;;;11.89;60.46;95543.13;5010991;28;20080;-49
2021/10/22 00:10:53;;;;;;;2.60;0.70;;;;;;;11.80;60.69;95558.75;5011084;28;20042;-54
2021/10/22 00:13:21;;;;;;;2.83;0.90;;;;;;;11.76;61.01;95557.84;4992995;28;20057;-51
2021/10/22 00:15:49;;;;;;;2.17;0.70;;;;;;;11.87;60.62;95575.22;5010984;28;20042;-50
2021/10/22 00:18:19;;;;;;;3.67;0.95;;;;;;;11.89;60.85;95570.25;5011309;28;20107;-53
2021/10/22 00:20:48;;;;;;;2.78;0.60;;;;;;;11.84;60.96;95575.09;5012186;28;20053;-50
2021/10/22 00:23:14;;;;;;;3.30;0.68;;;;;;;11.74;61.53;95575.63;5030259;28;20133;-50
2021/10/22 00:25:41;;;;;;;4.40;1.95;;;;;;;11.66;61.87;95590.88;5007856;28;20081;-54
2021/10/22 00:28:08;;;;;;;1.67;0.50;;;;;;;11.73;61.61;95601.91;5025709;28;20503;-49
2021/10/22 00:30:36;;;;;;;2.30;0.85;;;;;;;11.61;62.38;95600.06;5020675;28;20050;-52
2021/10/22 00:33:03;;;;;;;3.80;0.77;;;;;;;11.83;62.23;95604.13;5032798;22;20396;-49
2021/10/22 00:35:30;;;;;;;4.55;1.50;;;;;;;11.72;63.68;95610.41;5070492;28;20109;-48
2021/10/22 00:37:58;;;;;;;3.28;0.70;;;;;;;11.81;64.74;95611.81;5068211;28;20068;-46
2021/10/22 00:40:25;;;;;;;3.70;0.80;;;;;;;11.40;67.57;95610.31;5036506;28;20501;-46
2021/10/22 00:42:56;;;;;;;4.78;1.00;;;;;;;11.09;69.67;95602.88;5036279;28;20045;-50
2021/10/22 00:45:23;;;;;;;4.72;0.75;;;;;;;11.26;70.06;95618.06;5052419;28;20048;-48
2021/10/22 00:47:50;;;;;;;4.85;0.88;;;;;;;11.41;70.47;95615.41;5035610;28;20572;-49
2021/10/22 00:50:18;;;;;;;3.42;0.80;;;;;;;11.19;71.86;95613.22;5046130;28;20074;-45
2021/10/22 00:52:46;;;;;;;3.58;0.80;;;;;;;10.88;73.97;95624.69;5056073;28;20553;-48
2021/10/22 00:55:14;;;;;;;4.53;0.90;;;;;;;10.91;75.52;95622.09;5056642;28;20076;-46
2021/10/22 00:57:42;;;;;;;8.02;2.22;;;;;;;10.81;76.45;95638.00;5053910;28;20114;-47
2021/10/22 01:00:10;;;;;;;2.90;0.93;;;;;;;10.93;76.92;95627.94;5053769;28;20052;-46
2021/10/22 01:02:38;;;;;;;5.60;1.23;;;;;;;10.83;77.16;95635.75;5036122;28;20044;-49
2021/10/22 01:05:13;;;;;;;5.00;1.02;;;;;;;11.16;77.12;95633.66;5053103;28;20055;-48
2021/10/22 01:07:41;;;;;;;4.75;1.17;;;;;;;10.94;77.88;95631.44;5053889;28;20052;-45
2021/10/22 01:10:11;;;;;;;4.93;1.25;;;;;;;10.87;78.52;95632.03;5053811;28;20117;-52
2021/10/22 01:12:41;;;;;;;5.13;1.00;;;;;;;11.15;78.86;95626.66;5053730;28;20712;-49
2021/10/22 01:15:09;;;;;;;3.70;1.00;;;;;;;11.53;76.74;95630.03;5052989;28;20042;-49
2021/10/22 01:17:41;;;;;;;3.35;0.90;;;;;;;11.49;76.74;95631.84;5035872;28;20132;-50
2021/10/22 01:20:14;;;;;;;3.30;1.10;;;;;;;11.28;77.31;95623.91;5053431;28;20044;-46
2021/10/22 01:22:43;;;;;;;3.50;1.10;;;;;;;11.30;77.99;95627.06;5070859;28;20080;-49
2021/10/22 01:25:13;;;;;;;5.05;1.33;;;;;;;10.95;79.86;95633.81;5072824;28;20556;-49
2021/10/22 01:27:41;;;;;;;4.57;0.95;;;;;;;10.49;82.42;95635.88;5072093;28;20048;-47
2021/10/22 01:30:11;;;;;;;5.30;1.20;;;;;;;10.80;81.64;95631.81;5066748;28;20416;-50
2021/10/22 01:32:38;;;;;;;4.75;1.08;;;;;;;10.65;82.19;95637.91;5050922;28;20052;-49
2021/10/22 01:35:07;;;;;;;5.40;1.30;;;;;;;10.59;82.75;95628.44;5072606;28;20098;-47
2021/10/22 01:37:35;;;;;;;4.03;1.10;;;;;;;10.66;83.05;95628.66;5073324;28;20135;-50
2021/10/22 01:40:08;;;;;;;2.65;0.90;;;;;;;10.72;82.82;95625.41;5063469;28;20131;-48
2021/10/22 01:42:35;;;;;;;4.70;1.25;;;;;;;10.49;83.11;95632.38;5053292;28;20151;-52
2021/10/22 01:45:06;;;;;;;3.88;1.08;;;;;;;10.47;83.87;95629.25;5052496;28;20132;-46
2021/10/22 01:47:35;;;;;;;;;;;;;;;10.43;83.86;95641.84;5056376;28;20379;-47
2021/10/22 01:50:02;;;;;;;2.25;1.00;;;;;;;10.21;84.20;95638.44;5072936;28;19985;-46
2021/10/22 01:52:29;;;;;;;3.60;1.00;;;;;;;10.10;85.72;95626.47;5072753;28;20565;-51
2021/10/22 01:54:57;;;;;;;2.83;0.98;;;;;;;9.96;86.69;95626.03;5071970;28;20036;-50
2021/10/22 01:57:26;;;;;;;4.20;1.10;;;;;;;9.99;86.80;95626.13;5034817;28;20051;-46
2021/10/22 01:59:53;;;;;;;2.50;0.88;;;;;;;10.18;85.08;95632.94;5052643;28;20065;-49
2021/10/22 02:02:20;;;;;;;2.38;0.98;;;;;;;10.32;84.47;95632.63;5052826;28;20049;-47
2021/10/22 02:04:47;;;;;;;2.60;0.90;;;;;;;10.05;86.02;95632.91;5052076;28;20064;-47
2021/10/22 02:07:14;;;;;;;3.08;0.90;;;;;;;9.92;86.91;95631.31;5052670;28;20099;-48
2021/10/22 02:09:41;;;;;;;2.55;0.85;;;;;;;10.10;86.31;95636.50;5052607;28;20036;-47
2021/10/22 02:12:08;;;;;;;5.82;1.08;;;;;;;10.20;85.61;95631.44;5052687;28;20079;-46
2021/10/22 02:14:35;;;;;;;5.22;1.90;;;;;;;10.33;85.15;95636.91;5051688;28;20065;-46
2021/10/22 02:17:02;;;;;;;4.00;0.70;;;;;;;10.39;84.54;95641.75;5034733;28;20041;-47
2021/10/22 02:19:29;;;;;;;2.42;0.80;;;;;;;10.07;85.53;95640.66;5038643;28;20047;-46
2021/10/22 02:21:56;;;;;;;4.35;0.98;;;;;;;9.97;86.95;95647.28;5072452;28;20131;-46
2021/10/22 02:24:23;;;;;;;5.32;1.00;;;;;;;10.30;85.60;95635.66;5071665;28;20102;-47
2021/10/22 02:26:50;;;;;;;3.15;0.95;;;;;;;10.05;86.86;95645.63;5072394;28;20040;-47
2021/10/22 02:29:18;;;;;;;4.07;0.90;;;;;;;10.22;85.67;95639.22;5056928;28;20060;-46
2021/10/22 02:31:45;;;;;;;2.35;1.00;;;;;;;10.31;85.51;95645.34;5052022;28;20462;-47
2021/10/22 02:34:12;;;;;;;4.07;0.77;;;;;;;10.26;85.34;95640.16;5051201;28;20047;-46
2021/10/22 02:36:39;;;;;;;2.95;1.17;;;;;;;10.15;86.15;95653.31;5052038;28;20079;-47
2021/10/22 02:39:06;;;;;;;2.40;0.80;;;;;;;10.27;85.46;95656.06;5051898;28;20135;-46
2021/10/22 02:41:33;;;;;;;2.80;1.00;;;;;;;10.10;86.56;95648.09;5052013;28;20045;-47
2021/10/22 02:44:00;;;;;;;1.38;0.68;;;;;;;10.21;86.52;95660.06;5051293;28;20098;-46
2021/10/22 02:46:27;;;;;;;2.83;0.85;;;;;;;10.20;86.29;95663.09;5059562;28;20067;-46
2021/10/22 02:48:56;;;;;;;1.95;1.10;;;;;;;10.47;84.96;95667.91;5056295;28;20555;-47
2021/10/22 02:51:23;;;;;;;2.85;0.90;;;;;;;10.55;85.19;95668.91;5056579;28;20045;-49
2021/10/22 02:53:50;;;;;;;3.67;0.98;;;;;;;10.29;85.11;95666.53;5070799;28;20064;-46
2021/10/22 02:56:18;;;;;;;2.58;1.02;;;;;;;10.31;85.07;95675.09;5070673;28;20048;-48
2021/10/22 02:58:47;;;;;;;2.95;1.20;;;;;;;9.88;86.34;95670.94;5051894;28;20052;-45
2021/10/22 03:01:14;;;;;;;3.45;1.40;;;;;;;10.17;85.67;95670.00;5051276;28;20099;-48
2021/10/22 03:03:41;;;;;;;2.90;1.30;;;;;;;10.37;84.33;95673.75;5063316;28;20075;-46
2021/10/22 03:06:08;;;;;;;3.22;1.38;;;;;;;10.56;82.66;95675.88;5071966;28;20393;-47
2021/10/22 03:08:35;;;;;;;2.50;1.45;;;;;;;10.14;83.90;95676.06;5058478;28;20131;-46
2021/10/22 03:11:02;;;;;;;2.92;1.58;;;;;;;10.30;84.37;95678.91;5052069;28;20402;-50
2021/10/22 03:13:29;;;;;;;3.17;1.60;;;;;;;10.47;83.78;95684.13;5034029;28;20051;-47
2021/10/22 03:15:56;;;;;;;4.78;1.60;;;;;;;10.40;83.73;95675.78;5055545;28;20048;-49
2021/10/22 03:18:23;;;;;;;3.20;1.60;;;;;;;10.55;83.41;95682.44;5054493;28;20501;-47
2021/10/22 03:20:50;;;;;;;2.85;1.42;;;;;;;9.99;84.77;95682.91;5054940;28;20044;-51
2021/10/22 03:23:17;;;;;;;3.75;1.60;;;;;;;10.04;84.91;95685.41;5071188;28;20464;-46
2021/10/22 03:25:44;;;;;;;2.70;1.30;;;;;;;9.90;84.81;95674.09;5065416;28;20052;-50
2021/10/22 03:28:11;;;;;;;2.25;1.40;;;;;;;10.17;83.87;95688.09;5033639;28;20072;-50
2021/10/22 03:30:38;;;;;;;2.83;1.30;;;;;;;9.99;83.34;95685.59;5039917;28;20120;-49
2021/10/22 03:33:05;;;;;;;2.75;1.40;;;;;;;9.58;85.45;95689.16;5050567;28;20045;-50
2021/10/22 03:35:32;;;;;;;2.05;1.38;;;;;;;9.64;85.86;95698.66;5051280;28;20047;-52
2021/10/22 03:37:59;;;;;;;1.73;1.20;;;;;;;9.76;85.07;95703.31;5051291;28;20132;-50
2021/10/22 03:40:27;;;;;;;2.78;1.35;;;;;;;9.85;84.38;95701.34;5051281;28;20045;-48
2021/10/22 03:42:55;;;;;;;1.63;1.10;;;;;;;10.00;83.82;95703.38;5051335;28;20076;-53
2021/10/22 03:45:22;;;;;;;1.70;1.10;;;;;;;9.90;81.94;95709.22;5050720;28;20494;-50
2021/10/22 03:47:49;;;;;;;1.75;1.10;;;;;;;9.71;82.31;95712.41;5051102;28;20092;-51
2021/10/22 03:50:18;;;;;;;2.30;1.35;;;;;;;9.62;81.37;95713.59;5033505;28;20566;-46
2021/10/22 03:52:45;;;;;;;3.92;1.23;;;;;;;9.58;81.48;95719.66;5066880;28;20071;-50
2021/10/22 03:55:13;;;;;;;1.85;1.08;;;;;;;9.73;81.95;95712.09;5070419;28;20452;-48
2021/10/22 03:57:40;;;;;;;1.60;0.98;;;;;;;9.79;81.49;95708.06;5036112;28;20041;-49
2021/10/22 04:00:09;;;;;;;3.40;1.30;;;;;;;9.95;81.34;95711.72;5051167;28;20114;-52
2021/10/22 04:02:40;;;;;;;2.38;1.05;;;;;;;9.80;81.06;95715.03;5051163;28;20041;-50
2021/10/22 04:05:10;;;;;;;2.83;1.52;;;;;;;9.76;79.65;95716.81;5050526;28;20037;-49
2021/10/22 04:07:40;;;;;;;1.75;1.30;;;;;;;9.79;79.50;95708.06;5056625;28;20049;-49
2021/10/22 04:10:08;;;;;;;1.77;1.25;;;;;;;9.63;81.79;95715.19;5071171;28;20226;-50
2021/10/22 04:12:35;;;;;;;1.65;1.30;;;;;;;9.99;79.00;95726.13;5071798;28;20405;-52
2021/10/22 04:15:02;;;;;;;2.13;1.20;;;;;;;9.72;80.29;95719.41;5073912;28;20040;-51
2021/10/22 04:17:33;;;;;;;3.03;1.10;;;;;;;9.78;80.21;95723.50;5068128;28;20593;-50
2021/10/22 04:20:00;;;;;;;2.45;1.40;;;;;;;9.93;79.52;95719.34;5054636;28;20041;-50
2021/10/22 04:22:27;;;;;;;2.72;1.20;;;;;;;9.70;80.14;95718.94;5054537;28;20048;-49
2021/10/22 04:24:54;;;;;;;5.30;2.05;;;;;;;9.83;79.28;95728.66;5036306;28;20059;-50
2021/10/22 04:27:21;;;;;;;3.25;1.52;;;;;;;9.89;79.82;95718.44;5054417;28;20107;-48
2021/10/22 04:29:48;;;;;;;3.13;1.58;;;;;;;10.18;78.05;95722.16;5057108;28;20418;-49
2021/10/22 04:32:15;;;;;;;2.63;1.30;;;;;;;10.15;78.26;95728.22;5074514;28;20389;-48
2021/10/22 04:34:42;;;;;;;3.97;1.52;;;;;;;10.10;76.43;95729.19;5073525;28;20044;-51
2021/10/22 04:37:24;;;;;;;2.53;1.40;;;;;;;9.69;76.04;95727.38;5072363;28;20140;-51
2021/10/22 04:42:50;;;;;;;2.08;1.30;;;;;;;9.66;77.84;95730.75;5023169;28;20087;-48
2021/10/22 04:45:18;;;;;;;3.30;1.55;;;;;;;9.83;74.76;95730.59;5036927;28;20476;-51
2021/10/22 04:47:45;;;;;;;2.22;1.40;;;;;;;9.47;77.38;95737.41;5054242;28;20068;-56
2021/10/22 04:50:13;;;;;;;3.30;1.63;;;;;;;9.59;77.22;95726.66;5037273;28;20056;-46
2021/10/22 04:52:40;;;;;;;1.88;1.48;;;;;;;9.45;77.23;95728.03;5051595;28;20040;-49
2021/10/22 04:55:09;;;;;;;2.83;1.83;;;;;;;9.38;78.69;95719.69;5055741;28;20447;-46
2021/10/22 04:57:36;;;;;;;4.95;1.77;;;;;;;9.75;77.67;95721.44;5036214;28;20045;-49
2021/10/22 05:00:05;;;;;;;7.35;1.65;;;;;;;9.73;76.70;95728.28;5053903;28;20044;-46
2021/10/22 05:02:32;;;;;;;2.80;1.70;;;;;;;9.49;78.39;95740.56;5069018;28;20443;-49
2021/10/22 05:04:59;;;;;;;2.95;1.70;;;;;;;9.10;79.58;95728.31;5073162;28;20535;-49
2021/10/22 05:07:26;;;;;;;3.38;1.88;;;;;;;8.87;80.71;95733.16;5073878;28;20083;-48
2021/10/22 05:09:53;;;;;;;3.63;2.20;;;;;;;8.70;81.86;95735.97;5063978;28;20074;-50
2021/10/22 05:12:19;;;;;;;3.63;1.95;;;;;;;8.69;81.27;95737.09;5053785;28;20131;-49
2021/10/22 05:14:46;;;;;;;4.10;1.77;;;;;;;8.81;79.26;95745.28;5035316;28;20491;-48
2021/10/22 05:17:13;;;;;;;5.38;2.13;;;;;;;8.49;79.97;95735.91;5053781;28;20041;-50
2021/10/22 05:19:40;;;;;;;6.00;2.20;;;;;;;8.53;80.10;95753.00;5053487;28;20048;-50
2021/10/22 05:22:07;;;;;;;5.93;2.30;;;;;;;8.41;80.52;95748.28;5053262;28;20041;-48
2021/10/22 05:24:34;;;;;;;6.15;2.53;;;;;;;8.16;80.94;95750.72;5034648;28;20030;-51
2021/10/22 05:27:02;;;;;;;6.00;2.17;;;;;;;8.15;82.32;95748.34;5053449;28;20091;-50
2021/10/22 05:29:29;;;;;;;6.70;2.63;;;;;;;8.20;82.03;95754.34;5053342;28;20052;-52
2021/10/22 05:31:56;;;;;;;5.18;2.45;;;;;;;8.12;82.53;95754.34;5053569;28;20053;-50
2021/10/22 05:34:23;;;;;;;5.55;2.33;;;;;;;8.49;80.42;95755.56;5052232;28;20052;-45
2021/10/22 05:36:52;;;;;;;9.90;2.95;;;;;;;8.49;81.29;95760.97;5053283;28;20449;-45
2021/10/22 05:39:19;;;;;;;6.43;2.60;;;;;;;8.28;81.65;95754.63;5024914;28;20139;-45
2021/10/22 05:41:48;;;;;;;6.53;2.50;;;;;;;7.93;82.89;95758.22;5053278;28;20404;-49
2021/10/22 05:44:18;;;;;;;6.15;2.10;;;;;;;7.94;82.10;95759.00;5052355;28;20052;-50
2021/10/22 05:46:46;;;;;;;8.20;2.40;;;;;;;7.62;83.27;95768.38;5063071;28;20083;-51
2021/10/22 05:49:14;;;;;;;9.80;1.92;;;;;;;7.71;81.72;95769.94;5070421;28;20181;-49
2021/10/22 05:51:41;;;;;;;8.48;1.65;;;;;;;7.59;82.50;95767.09;5054794;28;20051;-47
2021/10/22 05:54:08;;;;;;;6.32;1.90;;;;;;;7.54;82.08;95783.41;5037363;28;20102;-47
2021/10/22 05:56:35;;;;;;;10.70;2.28;;;;;;;7.57;82.11;95773.91;5071314;28;20155;-49
2021/10/22 05:59:02;;;;;;;7.22;1.75;;;;;;;7.64;81.86;95777.72;5054905;28;20045;-50
2021/10/22 06:01:29;;;;;;;6.90;2.15;;;;;;;7.99;80.35;95774.19;5076044;28;20090;-55
2021/10/22 06:03:57;;;;;;;5.65;1.70;;;;;;;7.60;82.00;95770.56;5072370;28;20044;-48
2021/10/22 06:06:24;;;;;;;9.90;2.08;;;;;;;7.91;80.82;95778.50;5056506;28;20068;-49
2021/10/22 06:08:51;;;;;;;11.68;2.28;;;;;;;7.76;80.45;95776.28;5057418;28;20120;-48
2021/10/22 06:11:19;;;;;;;9.30;2.58;;;;;;;7.54;81.80;95775.34;5052787;28;20045;-49
2021/10/22 06:13:46;;;;;;;8.27;3.10;;;;;;;7.83;82.07;95784.66;5085725;28;20050;-51
2021/10/22 06:16:14;;;;;;;7.03;2.38;;;;;;;8.14;80.60;95790.66;5074662;28;20135;-48
2021/10/22 06:18:48;;;;;;;9.48;2.30;;;;;;;8.48;80.14;95791.72;5042001;28;20048;-50
2021/10/22 06:21:51;;;;;;;8.02;2.28;;;;;;;8.65;78.96;95802.47;5052405;28;20045;-49
2021/10/22 06:24:07;;;;;;;7.30;2.47;;;;;;;8.83;77.88;95797.78;5050114;28;20697;-49
2021/10/22 06:26:39;;;;;;;6.97;2.53;;;;;;;8.76;77.91;95802.91;5052849;28;20127;-53
2021/10/22 06:29:07;;;;;;;6.22;2.40;;;;;;;9.01;77.27;95806.59;5054825;28;20098;-50
2021/10/22 06:31:38;;;;;;;9.07;2.70;;;;;;;8.89;77.99;95801.88;5054251;28;20044;-50
2021/10/22 06:34:05;;;;;;;7.43;2.78;;;;;;;8.99;77.70;95811.53;5092671;22;20414;-52
2021/10/22 06:36:35;;;;;;;6.70;3.08;;;;;;;8.79;78.59;95812.25;5091676;28;20036;-51
2021/10/22 06:39:03;;;;;;;8.60;3.38;;;;;;;8.60;78.90;95810.72;5082727;28;20102;-48
2021/10/22 06:41:35;;;;;;;10.27;3.55;;;;;;;8.56;79.99;95815.19;5071943;28;20045;-53
2021/10/22 06:44:03;;;;;;;6.50;3.08;;;;;;;8.54;80.39;95819.31;5066997;28;20045;-49
2021/10/22 06:46:30;;;;;;;7.28;2.60;;;;;;;8.39;80.21;95824.09;5052125;28;20561;-51
2021/10/22 06:48:57;;;;;;;4.95;2.55;;;;;;;8.28;81.11;95824.72;5066792;28;20048;-49
2021/10/22 06:51:24;;;;;;;4.78;2.10;;;;;;;8.33;79.78;95816.47;5050698;28;20041;-48
2021/10/22 06:53:51;;;;;;;6.13;2.42;;;;;;;8.65;78.92;95813.25;5051163;28;20049;-51
2021/10/22 06:56:18;;;;;;;7.13;3.13;;;;;;;8.70;78.73;95804.19;5057476;28;20131;-54
2021/10/22 06:58:45;;;;;;;8.30;2.90;;;;;;;8.73;79.06;95813.53;5068344;28;20512;-49
2021/10/22 07:01:12;;;;;;;7.65;3.03;;;;;;;8.50;80.38;95821.84;5066815;28;20075;-52
2021/10/22 07:03:42;;;;;;;10.35;2.92;;;;;;;8.22;80.90;95821.41;5071121;28;20127;-50
2021/10/22 07:08:57;;;;;;;8.13;2.80;;;;;;;8.46;81.75;95825.53;5073179;28;20052;-54
2021/10/22 07:11:26;;;;;;;8.85;3.70;;;;;;;8.58;80.95;95839.94;5071791;28;20123;-53
2021/10/22 07:13:55;;;;;;;7.07;3.63;;;;;;;8.16;82.17;95842.34;5071036;28;20110;-50
2021/10/22 07:16:23;;;;;;;8.40;3.63;;;;;;;7.89;83.28;95837.28;5070099;28;20044;-51
2021/10/22 07:18:51;;;;;;;7.85;3.50;;;;;;;8.22;83.82;95842.16;5068760;28;20098;-49
2021/10/22 07:21:20;;;;;;;5.80;3.13;;;;;;;8.46;82.03;95825.53;5071832;28;20422;-48
2021/10/22 07:23:50;;;;;;;8.30;3.20;;;;;;;8.34;82.09;95847.72;5070314;28;20175;-48
2021/10/22 07:26:19;;;;;;;8.45;2.95;;;;;;;8.46;80.98;95845.19;5071771;28;20060;-49
2021/10/22 07:28:48;;;;;;;4.47;2.60;;;;;;;8.53;81.79;95848.19;5071285;28;20044;-47
2021/10/22 07:31:16;;;;;;;7.45;2.40;;;;;;;8.25;80.20;95857.69;5070691;28;20484;-47
2021/10/22 07:33:44;;;;;;;8.27;2.60;;;;;;;8.23;79.25;95865.34;5071007;28;20049;-53
2021/10/22 07:36:13;;;;;;;7.32;3.15;;;;;;;8.22;78.89;95874.50;5070525;28;20064;-53
2021/10/22 07:38:43;;;;;;;7.82;2.15;;;;;;;7.94;78.93;95885.63;5071850;28;20045;-52
2021/10/22 07:41:14;;;;;;;8.27;2.40;;;;;;;7.46;80.41;95898.03;5071585;28;20048;-52
2021/10/22 07:43:45;;;;;;;12.65;2.30;;;;;;;7.66;81.87;95907.44;5081838;28;20041;-55
2021/10/22 07:46:12;;;;;;;8.30;2.20;;;;;;;7.61;80.57;95894.13;5078166;28;20127;-55
2021/10/22 07:48:42;;;;;;;12.88;2.10;;;;;;;7.70;80.39;95900.34;5071560;28;20051;-57
2021/10/22 07:51:09;;;;;;;11.88;2.47;;;;;;;7.72;80.67;95906.19;5072546;28;20049;-57
2021/10/22 07:53:37;;;;;;;9.52;2.15;;;;;;;7.50;81.32;95915.16;5055793;28;20131;-54
2021/10/22 07:56:04;;;;;;;8.77;2.03;;;;;;;7.72;82.02;95914.25;5070761;28;20132;-54
2021/10/22 07:58:34;;;;;;;10.40;2.22;;;;;;;8.09;81.15;95917.50;5055654;28;20052;-56
2021/10/22 08:01:03;;;;;;;8.63;2.97;;;;;;;7.98;80.48;95924.28;5055923;28;20049;-49
2021/10/22 08:03:32;;;;;;;6.32;2.30;;;;;;;7.91;82.40;95929.34;5059396;28;20040;-56
2021/10/22 08:06:03;;;;;;;10.20;2.78;;;;;;;7.91;81.57;95930.13;5075481;28;20050;-48
2021/10/22 08:08:30;;;;;;;8.45;2.38;;;;;;;7.60;81.67;95930.22;5079703;28;20072;-50
2021/10/22 08:10:58;;;;;;;6.10;2.35;;;;;;;7.61;83.16;95933.72;5083623;28;20056;-55
2021/10/22 08:13:25;;;;;;;9.13;2.60;;;;;;;7.60;82.32;95930.22;5101220;28;20052;-53
2021/10/22 08:15:53;;;;;;;7.35;3.00;;;;;;;7.62;82.77;95938.00;5100853;28;20067;-54
2021/10/22 08:18:23;;;;;;;10.95;3.85;;;;;;;7.54;83.47;95953.03;5062887;28;20052;-57
2021/10/22 08:21:04;;;;;;;5.90;2.45;;;;;;;7.73;83.12;95950.06;5087438;28;20444;-48
2021/10/22 08:23:31;;;;;;;6.25;2.42;;;;;;;7.93;82.30;95951.41;5085487;28;20050;-48
2021/10/22 08:25:59;;;;;;;7.95;2.50;;;;;;;8.06;80.66;95953.16;5084452;28;20093;-48
2021/10/22 08:28:36;;;;;;;6.50;2.35;;;;;;;7.67;83.66;95957.50;5089816;28;20055;-51
2021/10/22 08:31:06;;;;;;;9.77;3.35;;;;;;;7.93;83.20;95956.78;5084123;28;20044;-51
2021/10/22 08:33:34;;;;;;;5.95;2.40;;;;;;;7.91;83.46;95961.69;5080640;28;20086;-56
2021/10/22 08:36:03;;;;;;;7.80;3.17;;;;;;;8.27;80.71;95960.63;5091868;28;20400;-51
2021/10/22 08:38:31;;;;;;;6.75;3.15;;;;;;;8.28;81.08;95962.19;5078634;28;20058;-51
2021/10/22 08:40:59;;;;;;;6.93;3.30;;;;;;;8.04;81.15;95968.84;5077605;28;20040;-53
2021/10/22 08:43:28;;;;;;;7.57;2.53;;;;;;;8.06;81.63;95961.25;5087562;28;20040;-52
2021/10/22 08:45:58;;;;;;;7.85;3.15;;;;;;;8.01;82.04;95963.28;5090872;28;20036;-47
2021/10/22 08:48:29;;;;;;;9.43;3.50;;;;;;;8.38;81.33;95970.00;5087806;28;20043;-48
2021/10/22 08:50:57;;;;;;;6.38;2.72;;;;;;;8.29;82.45;95967.28;5085456;28;20033;-51
2021/10/22 08:53:25;;;;;;;7.40;2.95;;;;;;;8.45;81.23;95969.53;5087041;28;20048;-48
2021/10/22 08:55:54;;;;;;;6.40;2.80;;;;;;;8.34;82.01;95969.03;5078361;28;20386;-48
2021/10/22 08:58:22;;;;;;;6.15;3.05;;;;;;;8.40;80.99;95967.78;5066346;28;20582;-51
2021/10/22 09:00:50;;;;;;;7.32;3.17;;;;;;;8.69;79.71;95979.84;5076486;28;20052;-51
2021/10/22 09:03:19;;;;;;;5.63;2.90;;;;;;;8.50;80.14;95975.56;5084645;28;20040;-49
2021/10/22 09:05:59;;;;;;;4.90;2.78;;;;;;;8.57;80.17;95978.56;5076532;28;20064;-52
2021/10/22 09:08:34;;;;;;;5.07;2.72;;;;;;;8.35;81.57;95971.41;5078211;28;20493;-50
2021/10/22 09:11:03;;;;;;;5.80;2.97;;;;;;;8.58;81.03;95974.78;5074015;28;20044;-49
2021/10/22 09:13:35;;;;;;;5.57;2.70;;;;;;;8.69;80.53;95980.63;5081210;28;20664;-51
2021/10/22 09:16:22;;;;;;;7.47;3.28;;;;;;;9.06;78.57;95986.44;5084909;28;20071;-48
2021/10/22 09:18:51;;;;;;;7.55;2.47;;;;;;;8.84;79.26;96003.63;5081145;28;20051;-50
2021/10/22 09:21:29;;;;;;;6.47;2.53;;;;;;;8.74;79.91;96004.75;5078705;28;20042;-48
2021/10/22 09:24:20;;;;;;;5.93;2.63;;;;;;;9.14;77.64;96007.25;5082798;28;20050;-49
2021/10/22 09:26:52;;;;;;;5.10;2.38;;;;;;;8.98;76.94;96022.34;5073578;28;20041;-49
2021/10/22 09:29:22;;;;;;;6.40;2.43;;;;;;;9.08;75.48;96008.50;5088267;28;20474;-49
2021/10/22 09:31:51;;;;;;;8.57;3.13;;;;;;;8.67;79.18;95999.03;5082929;28;20810;-50
2021/10/22 09:34:36;;;;;;;7.72;2.58;;;;;;;8.76;76.45;95990.94;5079424;28;20408;-52
2021/10/22 09:37:09;;;;;;;4.95;2.30;;;;;;;8.74;77.85;95999.38;5088623;28;20040;-56
2021/10/22 09:39:40;;;;;;;3.83;2.00;;;;;;;8.68;73.60;95992.53;5096572;28;20451;-56
2021/10/22 09:42:16;;;;;;;4.72;2.33;;;;;;;8.27;74.62;95991.06;5081300;28;20052;-55
2021/10/22 09:44:47;;;;;;;6.40;2.97;;;;;;;8.28;77.18;96005.31;5090169;28;20059;-57
2021/10/22 09:47:19;;;;;;;4.50;2.10;;;;;;;8.39;78.20;96014.75;5063494;28;20062;-51
2021/10/22 09:49:53;;;;;;;4.78;2.30;;;;;;;8.64;75.89;96022.06;5086214;28;20068;-56
2021/10/22 09:52:26;;;;;;;5.50;2.25;;;;;;;8.31;77.01;96012.78;5091971;28;20071;-56
2021/10/22 09:55:08;;;;;;;3.75;2.28;;;;;;;8.62;75.90;96015.38;5080181;28;20071;-55
2021/10/22 09:57:57;;;;;;;4.30;2.20;;;;;;;8.91;74.53;96022.84;5088635;28;20041;-55
2021/10/22 10:00:32;;;;;;;5.22;2.38;;;;;;;8.84;74.33;96019.81;5076017;28;20052;-52
2021/10/22 10:03:02;;;;;;;4.72;2.30;;;;;;;8.92;75.33;96020.91;5058774;28;20059;-52
2021/10/22 10:05:29;;;;;;;5.60;2.60;;;;;;;8.72;76.01;96012.38;5087720;28;20371;-48
2021/10/22 10:08:01;;;;;;;5.50;2.10;;;;;;;8.64;78.79;96032.84;5077251;28;20044;-51
2021/10/22 10:10:32;;;;;;;5.25;2.45;;;;;;;8.65;76.80;96025.53;5092587;28;20691;-52
2021/10/22 10:13:01;;;;;;;15.27;2.60;;;;;;;8.66;73.83;96033.31;5087483;28;20044;-52
2021/10/22 10:15:29;;;;;;;6.18;2.40;;;;;;;8.84;73.33;96023.31;5087328;28;20071;-51
2021/10/22 10:18:00;;;;;;;9.30;2.50;;;;;;;8.84;72.49;96026.00;5076072;28;20048;-49
2021/10/22 10:20:31;;;;;;;6.45;2.17;;;;;;;8.88;74.08;96037.75;5088896;28;20052;-53
2021/10/22 10:23:20;;;;;;;5.50;2.17;;;;;;;8.92;75.55;96034.41;5064905;28;20051;-52
2021/10/22 10:25:48;;;;;;;4.90;1.90;;;;;;;9.30;72.53;96023.72;5085378;28;20464;-52
2021/10/22 10:28:16;;;;;;;5.63;2.42;;;;;;;9.12;72.68;96018.34;5081403;28;20120;-50
2021/10/22 10:30:47;;;;;;;6.05;2.20;;;;;;;8.90;72.61;96023.91;5080481;28;20611;-56
2021/10/22 10:33:36;;;;;;;4.60;2.53;;;;;;;9.20;71.48;96007.88;5077841;28;20048;-54
2021/10/22 10:36:03;;;;;;;2.70;1.75;;;;;;;8.86;71.81;96018.38;5096842;28;20036;-52
2021/10/22 10:38:47;;;;;;;6.93;1.92;;;;;;;8.91;71.47;96032.84;5078441;28;20105;-52
2021/10/22 10:41:23;;;;;;;6.13;1.90;;;;;;;8.86;72.01;96036.47;5076408;28;20036;-55
2021/10/22 10:44:22;;;;;;;7.03;2.25;;;;;;;8.72;71.08;96041.25;5083858;28;20048;-54
2021/10/22 10:46:52;;;;;;;3.97;2.28;;;;;;;8.68;72.25;96037.56;5073030;28;20408;-57
2021/10/22 10:49:52;;;;;;;4.05;2.25;;;;;;;8.73;70.99;96034.72;5079682;28;20071;-54
2021/10/22 10:52:37;;;;;;;6.18;2.45;;;;;;;8.99;70.95;96032.03;5019375;28;20160;-54
2021/10/22 10:55:15;;;;;;;5.45;2.10;;;;;;;8.72;72.16;96030.47;5072320;28;20041;-52
2021/10/22 10:57:51;;;;;;;5.13;2.20;;;;;;;8.95;72.30;96026.47;5071140;28;20048;-54
2021/10/22 11:00:21;;;;;;;4.72;2.20;;;;;;;8.93;71.52;96028.69;5076737;28;20049;-55
2021/10/22 11:03:03;;;;;;;2.70;1.63;;;;;;;8.87;71.62;96030.78;5074549;28;20055;-55
2021/10/22 11:06:06;;;;;;;5.25;2.05;;;;;;;8.92;72.70;96016.31;5100140;28;20052;-49
2021/10/22 11:08:33;;;;;;;7.85;2.40;;;;;;;9.21;71.06;96029.13;5086575;28;20040;-50
2021/10/22 11:11:15;;;;;;;6.25;1.92;;;;;;;9.06;69.44;96014.22;5075441;28;20045;-51
2021/10/22 11:13:42;;;;;;;5.88;1.90;;;;;;;9.17;69.72;96024.72;5079580;28;20074;-50
2021/10/22 11:16:24;;;;;;;5.25;2.17;;;;;;;9.13;69.24;96021.81;5079094;28;20147;-53
2021/10/22 11:19:06;;;;;;;5.47;1.90;;;;;;;9.21;69.06;96017.53;5087870;28;20048;-50
2021/10/22 11:21:45;;;;;;;6.30;1.70;;;;;;;9.11;68.14;96014.06;5075213;28;20237;-53
2021/10/22 11:24:21;;;;;;;4.22;1.45;;;;;;;9.02;66.70;96026.00;5078410;28;20054;-51
2021/10/22 11:27:10;;;;;;;8.43;2.45;;;;;;;9.33;66.60;96012.28;5087719;28;20036;-51
2021/10/22 11:29:44;;;;;;;6.00;1.80;;;;;;;9.08;66.14;96016.63;5064041;28;20064;-49
2021/10/22 11:32:15;;;;;;;5.20;1.80;;;;;;;8.98;67.61;96001.53;5080888;28;20056;-52
2021/10/22 11:34:49;;;;;;;5.93;1.85;;;;;;;8.73;66.47;96002.34;5070893;28;20083;-51
2021/10/22 11:37:19;;;;;;;3.83;1.55;;;;;;;8.65;67.09;96010.16;5070134;28;20032;-51
2021/10/22 11:39:56;;;;;;;5.55;1.70;;;;;;;8.49;67.72;96014.44;5079851;28;20112;-52
2021/10/22 11:42:27;;;;;;;6.18;1.77;;;;;;;8.64;69.42;96005.88;5076761;28;20116;-50
2021/10/22 11:45:05;;;;;;;21.88;2.60;;;;;;;9.19;66.78;96006.25;5079664;28;20051;-53
2021/10/22 11:47:40;;;;;;;5.63;2.10;;;;;;;9.09;68.43;96002.00;5070124;28;20040;-51
2021/10/22 11:50:08;;;;;;;7.45;2.15;;;;;;;9.12;68.41;95998.66;5079484;28;20040;-50
2021/10/22 11:52:35;;;;;;;14.48;2.15;;;;;;;9.06;66.89;96006.13;5070697;28;20052;-49
2021/10/22 11:55:03;;;;;;;6.45;2.00;;;;;;;9.05;67.49;96012.63;5070375;28;20040;-51
2021/10/22 11:57:34;;;;;;;4.32;1.77;;;;;;;9.07;68.58;96012.34;5063048;28;20047;-52